createdAt,value
2023-05-02T00:36:31.250Z,66.4
2023-05-02T00:37:32.538Z,67.9
2023-05-02T00:38:33.782Z,67.8
2023-05-02T00:39:34.943Z,67.6
2023-05-02T00:40:38.841Z,67.5
2023-05-02T00:41:39.983Z,67.4
2023-05-02T00:42:44.137Z,67.3
2023-05-02T00:43:45.270Z,67.2
2023-05-02T00:44:46.450Z,67.2
2023-05-02T00:45:50.565Z,67.1
2023-05-02T00:46:51.989Z,67.1
2023-05-02T00:47:53.314Z,67.1
2023-05-02T00:48:54.453Z,67
2023-05-02T00:49:55.623Z,67
2023-05-02T00:50:56.786Z,67
2023-05-02T00:51:58.014Z,67
2023-05-02T00:52:59.142Z,67
2023-05-02T00:54:00.313Z,67
2023-05-02T00:55:01.485Z,67
2023-05-02T00:56:02.640Z,67
2023-05-02T00:57:03.834Z,67.1
2023-05-02T00:58:04.979Z,67.1
2023-05-02T00:59:06.136Z,67.1
2023-05-02T01:00:07.308Z,67.1
2023-05-02T01:01:08.555Z,67.2
2023-05-02T01:02:10.051Z,67.2
2023-05-02T01:03:11.869Z,67.3
2023-05-02T01:04:13.340Z,67.3
2023-05-02T01:05:14.571Z,67.3
2023-05-02T01:06:15.752Z,67.4
2023-05-02T01:07:16.921Z,67.4
2023-05-02T01:08:18.061Z,67.4
2023-05-02T01:09:19.231Z,67.5
2023-05-02T01:10:20.435Z,67.5
2023-05-02T01:11:21.623Z,67.5
2023-05-02T01:12:22.785Z,67.6
2023-05-02T01:13:23.941Z,67.6
2023-05-02T01:14:25.108Z,67.6
2023-05-02T01:15:26.283Z,67.7
2023-05-02T01:16:27.512Z,67.7
2023-05-02T01:17:28.719Z,67.7
2023-05-02T01:18:29.909Z,67.8
2023-05-02T01:19:31.074Z,67.8
2023-05-02T01:20:32.244Z,67.8
2023-05-02T01:21:33.408Z,67.9
2023-05-02T01:22:34.605Z,67.9
2023-05-02T01:23:35.745Z,68
2023-05-02T01:24:36.919Z,68
2023-05-02T01:25:38.115Z,68.1
2023-05-02T01:26:39.273Z,68.2
2023-05-02T01:27:40.436Z,68.2
2023-05-02T01:28:41.614Z,68.2
2023-05-02T01:29:42.793Z,68.3
2023-05-02T01:30:43.932Z,68.3
2023-05-02T01:31:45.153Z,68.4
2023-05-02T01:32:46.434Z,68.4
2023-05-02T01:33:47.602Z,68.5
2023-05-02T01:34:48.764Z,68.5
2023-05-02T01:35:49.926Z,68.6
2023-05-02T01:36:51.100Z,68.6
2023-05-02T01:37:52.289Z,68.6
2023-05-02T01:38:53.536Z,68.7
2023-05-02T01:39:54.699Z,68.7
2023-05-02T01:40:55.864Z,68.8
2023-05-02T01:41:57.045Z,68.8
2023-05-02T01:42:58.215Z,68.9
2023-05-02T01:43:59.673Z,68.9
2023-05-02T01:45:00.844Z,69
2023-05-02T01:46:02.013Z,69
2023-05-02T01:47:03.256Z,69
2023-05-02T01:48:04.496Z,69.1
2023-05-02T01:49:05.692Z,69.1
2023-05-02T01:50:06.855Z,69.2
2023-05-02T01:51:08.022Z,69.2
2023-05-02T01:52:09.186Z,69.3
2023-05-02T01:53:10.392Z,69.3
2023-05-02T01:54:11.540Z,69.4
2023-05-02T01:55:12.702Z,69.4
2023-05-02T01:56:13.885Z,69.4
2023-05-02T01:57:15.030Z,69.4
2023-05-02T01:58:16.205Z,69.5
2023-05-02T01:59:17.361Z,69.5
2023-05-02T02:00:18.536Z,69.5
2023-05-02T02:01:19.804Z,69.6
2023-05-02T02:02:21.005Z,69.6
2023-05-02T02:03:22.236Z,69.6
2023-05-02T02:04:23.526Z,69.7
2023-05-02T02:05:24.675Z,69.7
2023-05-02T02:06:26.010Z,69.8
2023-05-02T02:07:27.191Z,69.8
2023-05-02T02:08:28.385Z,69.8
2023-05-02T02:09:29.759Z,69.9
2023-05-02T02:10:30.918Z,69.9
2023-05-02T02:11:32.086Z,69.9
2023-05-02T02:12:33.251Z,70
2023-05-02T02:13:34.452Z,70
2023-05-02T02:14:35.605Z,70
2023-05-02T02:15:36.776Z,70
2023-05-02T02:16:37.957Z,70.1
2023-05-02T02:17:39.199Z,70.1
2023-05-02T02:18:40.358Z,70.1
2023-05-02T02:19:41.518Z,70.2
2023-05-02T02:20:42.688Z,70.2
2023-05-02T02:21:43.857Z,70.2
2023-05-02T02:22:45.019Z,70.2
2023-05-02T02:23:46.216Z,70.3
2023-05-02T02:24:47.423Z,70.3
2023-05-02T02:25:48.642Z,70.3
2023-05-02T02:26:52.363Z,70.3
2023-05-02T02:27:53.500Z,70.4
2023-05-02T02:28:54.666Z,70.4
2023-05-02T02:29:55.840Z,70.4
2023-05-02T02:30:57.182Z,70.4
2023-05-02T02:31:58.340Z,70.5
2023-05-02T02:32:59.601Z,70.5
2023-05-02T02:34:00.759Z,70.5
2023-05-02T02:35:01.925Z,70.5
2023-05-02T02:36:03.089Z,70.6
2023-05-02T02:37:04.253Z,70.6
2023-05-02T02:38:05.434Z,70.6
2023-05-02T02:39:06.617Z,70.7
2023-05-02T02:40:07.774Z,70.7
2023-05-02T02:41:08.931Z,70.7
2023-05-02T02:42:10.090Z,70.7
2023-05-02T02:43:11.258Z,70.8
2023-05-02T02:44:14.438Z,70.8
2023-05-02T02:45:15.596Z,70.9
2023-05-02T02:46:16.806Z,70.9
2023-05-02T02:47:17.945Z,70.9
2023-05-02T02:48:19.461Z,70.9
2023-05-02T02:49:20.620Z,71
2023-05-02T02:50:21.778Z,71
2023-05-02T02:51:22.943Z,71
2023-05-02T02:52:24.116Z,71.1
2023-05-02T02:53:25.279Z,71.1
2023-05-02T02:54:28.450Z,71.1
2023-05-02T02:55:29.615Z,71.2
2023-05-02T02:56:33.683Z,71.2
2023-05-02T02:57:34.844Z,71.2
2023-05-02T02:58:36.019Z,71.2
2023-05-02T02:59:37.180Z,71.3
2023-05-02T03:00:41.517Z,71.3
2023-05-02T03:01:42.740Z,71.3
2023-05-02T03:02:44.042Z,71.3
2023-05-02T03:03:45.284Z,71.4
2023-05-02T03:04:46.448Z,71.4
2023-05-02T03:05:47.613Z,71.4
2023-05-02T03:06:49.163Z,71.4
2023-05-02T03:07:50.543Z,71.5
2023-05-02T03:08:51.714Z,71.5
2023-05-02T03:09:52.908Z,71.5
2023-05-02T03:10:54.051Z,71.5
2023-05-02T03:11:55.208Z,71.6
2023-05-02T03:12:56.714Z,71.6
2023-05-02T03:13:57.892Z,71.6
2023-05-02T03:14:59.057Z,71.6
2023-05-02T03:16:00.259Z,71.6
2023-05-02T03:17:02.217Z,71.7
2023-05-02T03:18:03.791Z,71.7
2023-05-02T03:19:05.004Z,71.7
2023-05-02T03:20:06.160Z,71.7
2023-05-02T03:21:07.323Z,71.7
2023-05-02T03:22:08.494Z,71.8
2023-05-02T03:23:09.663Z,71.8
2023-05-02T03:24:10.835Z,71.8
2023-05-02T03:25:12.017Z,71.8
2023-05-02T03:26:13.247Z,71.8
2023-05-02T03:27:14.404Z,71.8
2023-05-02T03:28:15.595Z,71.9
2023-05-02T03:29:16.736Z,71.9
2023-05-02T03:30:17.911Z,71.9
2023-05-02T03:31:19.114Z,71.9
2023-05-02T03:32:20.258Z,71.9
2023-05-02T03:33:21.426Z,71.9
2023-05-02T03:34:22.637Z,71.9
2023-05-02T03:35:23.787Z,71.9
2023-05-02T03:36:24.956Z,71.9
2023-05-02T03:37:26.124Z,72
2023-05-02T03:38:27.299Z,72
2023-05-02T03:39:28.460Z,72
2023-05-02T03:40:29.651Z,72
2023-05-02T03:41:30.891Z,72
2023-05-02T03:42:32.071Z,72
2023-05-02T03:43:33.227Z,72
2023-05-02T03:44:34.389Z,72
2023-05-02T03:45:35.556Z,72
2023-05-02T03:46:36.771Z,72
2023-05-02T03:47:38.202Z,72.1
2023-05-02T03:48:39.462Z,72.1
2023-05-02T03:49:40.662Z,72.1
2023-05-02T03:50:41.823Z,72.1
2023-05-02T03:51:42.992Z,72.1
2023-05-02T03:52:44.168Z,72.1
2023-05-02T03:53:45.326Z,72.1
2023-05-02T03:54:46.491Z,72.1
2023-05-02T03:55:47.682Z,72.1
2023-05-02T03:56:49.048Z,72.2
2023-05-02T03:57:50.222Z,72.2
2023-05-02T03:58:51.404Z,72.2
2023-05-02T03:59:52.585Z,72.2
2023-05-02T04:00:53.756Z,72.2
2023-05-02T04:01:54.956Z,72.2
2023-05-02T04:02:56.305Z,72.2
2023-05-02T04:03:57.847Z,72.2
2023-05-02T04:04:58.993Z,72.3
2023-05-02T04:06:00.243Z,72.3
2023-05-02T04:07:01.410Z,72.3
2023-05-02T04:08:02.586Z,72.3
2023-05-02T04:09:03.755Z,72.3
2023-05-02T04:10:05.215Z,72.3
2023-05-02T04:11:06.408Z,72.3
2023-05-02T04:12:07.570Z,72.3
2023-05-02T04:13:08.734Z,72.3
2023-05-02T04:14:09.909Z,72.3
2023-05-02T04:15:11.063Z,72.3
2023-05-02T04:16:12.269Z,72.3
2023-05-02T04:17:13.694Z,72.3
2023-05-02T04:18:15.012Z,72.4
2023-05-02T04:19:16.166Z,72.4
2023-05-02T04:20:17.332Z,72.4
2023-05-02T04:21:18.498Z,72.4
2023-05-02T04:22:19.671Z,72.4
2023-05-02T04:23:20.837Z,72.4
2023-05-02T04:24:21.999Z,72.4
2023-05-02T04:25:23.167Z,72.4
2023-05-02T04:26:24.360Z,72.4
2023-05-02T04:27:25.512Z,72.4
2023-05-02T04:28:26.696Z,72.4
2023-05-02T04:29:27.855Z,72.5
2023-05-02T04:30:29.019Z,72.5
2023-05-02T04:31:30.408Z,72.5
2023-05-02T04:32:31.763Z,72.5
2023-05-02T04:33:32.917Z,72.5
2023-05-02T04:34:34.066Z,72.5
2023-05-02T04:35:35.245Z,72.6
2023-05-02T04:36:36.398Z,72.6
2023-05-02T04:37:38.555Z,72.5
2023-05-02T04:38:39.707Z,72.5
2023-05-02T04:39:43.773Z,72.5
2023-05-02T04:40:44.944Z,72.6
2023-05-02T04:41:46.131Z,72.6
2023-05-02T04:42:47.270Z,72.6
2023-05-02T04:43:48.466Z,72.5
2023-05-02T04:44:49.605Z,72.5
2023-05-02T04:45:51.077Z,72.5
2023-05-02T04:46:52.459Z,72.5
2023-05-02T04:47:53.657Z,72.5
2023-05-02T04:48:54.812Z,72.5
2023-05-02T04:49:55.979Z,72.5
2023-05-02T04:50:57.184Z,72.5
2023-05-02T04:51:58.348Z,72.5
2023-05-02T04:52:59.597Z,72.6
2023-05-02T04:54:00.799Z,72.6
2023-05-02T04:55:01.974Z,72.6
2023-05-02T04:56:03.159Z,72.6
2023-05-02T04:57:04.355Z,72.6
2023-05-02T04:58:05.485Z,72.6
2023-05-02T04:59:06.650Z,72.6
2023-05-02T05:00:07.818Z,72.6
2023-05-02T05:01:09.108Z,72.6
2023-05-02T05:02:10.552Z,72.7
2023-05-02T05:03:12.072Z,72.7
2023-05-02T05:04:14.420Z,72.6
2023-05-02T05:05:15.804Z,72.7
2023-05-02T05:06:17.055Z,72.7
2023-05-02T05:07:18.254Z,72.7
2023-05-02T05:08:19.419Z,72.7
2023-05-02T05:09:20.617Z,72.7
2023-05-02T05:10:21.749Z,72.7
2023-05-02T05:11:22.924Z,72.7
2023-05-02T05:12:27.757Z,72.7
2023-05-02T05:13:28.997Z,72.7
2023-05-02T05:14:30.163Z,72.9
2023-05-02T05:15:31.337Z,73
2023-05-02T05:16:32.605Z,72.9
2023-05-02T05:17:33.865Z,72.9
2023-05-02T05:18:35.045Z,72.8
2023-05-02T05:19:36.219Z,72.8
2023-05-02T05:20:37.415Z,72.8
2023-05-02T05:21:38.614Z,72.8
2023-05-02T05:22:39.744Z,72.8
2023-05-02T05:23:41.067Z,72.7
2023-05-02T05:24:42.228Z,72.7
2023-05-02T05:25:46.607Z,72.7
2023-05-02T05:26:47.768Z,72.7
2023-05-02T05:27:49.094Z,72.7
2023-05-02T05:28:50.228Z,72.7
2023-05-02T05:29:51.446Z,72.7
2023-05-02T05:30:52.736Z,72.7
2023-05-02T05:31:53.985Z,72.7
2023-05-02T05:32:55.286Z,72.6
2023-05-02T05:33:56.557Z,72.7
2023-05-02T05:34:57.715Z,72.7
2023-05-02T05:35:58.883Z,72.7
2023-05-02T05:37:00.048Z,72.7
2023-05-02T05:38:01.215Z,72.7
2023-05-02T05:39:02.383Z,72.7
2023-05-02T05:40:04.844Z,72.7
2023-05-02T05:41:06.173Z,72.7
2023-05-02T05:42:07.350Z,72.7
2023-05-02T05:43:08.645Z,72.7
2023-05-02T05:44:09.801Z,72.7
2023-05-02T05:45:10.969Z,72.7
2023-05-02T05:46:12.131Z,72.7
2023-05-02T05:47:13.460Z,72.7
2023-05-02T05:48:14.675Z,72.7
2023-05-02T05:49:15.814Z,72.7
2023-05-02T05:50:16.976Z,72.6
2023-05-02T05:51:18.143Z,72.6
2023-05-02T05:52:19.310Z,72.7
2023-05-02T05:53:20.484Z,72.7
2023-05-02T05:54:21.645Z,72.7
2023-05-02T05:55:22.832Z,72.8
2023-05-02T05:56:23.985Z,72.9
2023-05-02T05:57:25.235Z,73.1
2023-05-02T05:58:26.426Z,73.2
2023-05-02T05:59:27.574Z,73.3
2023-05-02T06:00:28.779Z,73.4
2023-05-02T06:01:29.944Z,73.5
2023-05-02T06:02:31.249Z,73.6
2023-05-02T06:03:32.990Z,73.6
2023-05-02T06:04:34.545Z,73.5
2023-05-02T06:05:35.709Z,73.5
2023-05-02T06:06:36.889Z,73.5
2023-05-02T06:07:38.042Z,73.5
2023-05-02T06:08:39.304Z,73.4
2023-05-02T06:09:40.451Z,73.3
2023-05-02T06:10:41.614Z,73.3
2023-05-02T06:11:42.783Z,73.2
2023-05-02T06:12:43.988Z,73.2
2023-05-02T06:13:45.156Z,73.1
2023-05-02T06:14:46.305Z,73.1
2023-05-02T06:15:47.861Z,73.1
2023-05-02T06:16:49.008Z,73.1
2023-05-02T06:17:50.269Z,73
2023-05-02T06:18:51.428Z,73
2023-05-02T06:19:52.609Z,72.9
2023-05-02T06:20:53.771Z,72.9
2023-05-02T06:21:54.944Z,72.9
2023-05-02T06:22:56.163Z,72.9
2023-05-02T06:23:57.388Z,72.8
2023-05-02T06:24:58.520Z,72.8
2023-05-02T06:25:59.689Z,72.7
2023-05-02T06:27:00.866Z,72.7
2023-05-02T06:28:02.017Z,72.7
2023-05-02T06:29:03.233Z,72.7
2023-05-02T06:30:05.157Z,72.7
2023-05-02T06:31:06.798Z,72.7
2023-05-02T06:32:08.095Z,72.7
2023-05-02T06:33:09.311Z,72.6
2023-05-02T06:34:10.470Z,72.5
2023-05-02T06:35:11.672Z,72.6
2023-05-02T06:36:12.828Z,72.6
2023-05-02T06:37:14.009Z,72.6
2023-05-02T06:38:15.165Z,72.6
2023-05-02T06:39:16.425Z,72.6
2023-05-02T06:40:17.592Z,72.5
2023-05-02T06:41:19.348Z,72.5
2023-05-02T06:42:20.480Z,72.5
2023-05-02T06:43:21.646Z,72.5
2023-05-02T06:44:22.833Z,72.5
2023-05-02T06:45:24.263Z,72.4
2023-05-02T06:46:25.486Z,72.4
2023-05-02T06:47:26.901Z,72.4
2023-05-02T06:48:28.062Z,72.3
2023-05-02T06:49:29.233Z,72.4
2023-05-02T06:50:30.391Z,72.4
2023-05-02T06:51:31.598Z,72.4
2023-05-02T06:52:32.801Z,72.4
2023-05-02T06:53:34.117Z,72.3
2023-05-02T06:54:35.339Z,72.3
2023-05-02T06:55:36.483Z,72.3
2023-05-02T06:56:37.643Z,72.2
2023-05-02T06:57:38.811Z,72.1
2023-05-02T06:58:40.000Z,72.1
2023-05-02T06:59:41.217Z,72.1
2023-05-02T07:00:42.649Z,72.1
2023-05-02T07:01:43.887Z,72.2
2023-05-02T07:02:45.131Z,72.2
2023-05-02T07:03:46.309Z,72.3
2023-05-02T07:04:48.011Z,72.3
2023-05-02T07:05:49.153Z,72.3
2023-05-02T07:06:50.741Z,72.3
2023-05-02T07:07:52.043Z,72.3
2023-05-02T07:08:53.213Z,72.3
2023-05-02T07:09:54.389Z,72.3
2023-05-02T07:10:55.546Z,72.2
2023-05-02T07:11:56.737Z,72.2
2023-05-02T07:12:57.881Z,72.2
2023-05-02T07:13:59.050Z,72.1
2023-05-02T07:15:00.253Z,72.1
2023-05-02T07:16:01.780Z,72
2023-05-02T07:17:03.322Z,71.9
2023-05-02T07:18:04.554Z,71.9
2023-05-02T07:19:05.748Z,71.9
2023-05-02T07:20:06.915Z,71.9
2023-05-02T07:21:08.086Z,71.9
2023-05-02T07:22:09.247Z,71.9
2023-05-02T07:23:10.430Z,71.9
2023-05-02T07:24:11.587Z,71.9
2023-05-02T07:25:12.770Z,71.9
2023-05-02T07:26:13.923Z,71.8
2023-05-02T07:27:15.078Z,71.7
2023-05-02T07:28:16.245Z,71.7
2023-05-02T07:29:17.436Z,71.7
2023-05-02T07:30:18.629Z,71.6
2023-05-02T07:31:19.948Z,71.5
2023-05-02T07:32:21.827Z,71.6
2023-05-02T07:33:23.478Z,71.7
2023-05-02T07:34:24.712Z,71.8
2023-05-02T07:35:25.853Z,71.8
2023-05-02T07:36:27.026Z,71.9
2023-05-02T07:37:28.200Z,71.9
2023-05-02T07:38:29.360Z,71.9
2023-05-02T07:39:30.684Z,71.8
2023-05-02T07:40:32.078Z,71.8
2023-05-02T07:41:33.274Z,71.8
2023-05-02T07:42:34.446Z,71.8
2023-05-02T07:43:35.611Z,71.7
2023-05-02T07:44:36.766Z,71.7
2023-05-02T07:45:37.977Z,71.7
2023-05-02T07:46:39.394Z,71.7
2023-05-02T07:47:40.672Z,71.6
2023-05-02T07:48:41.830Z,71.6
2023-05-02T07:49:43.315Z,71.5
2023-05-02T07:50:44.482Z,71.3
2023-05-02T07:51:45.635Z,71.1
2023-05-02T07:52:46.800Z,70.9
2023-05-02T07:53:47.968Z,70.7
2023-05-02T07:54:49.243Z,70.5
2023-05-02T07:55:50.398Z,70.6
2023-05-02T07:56:51.564Z,70.6
2023-05-02T07:57:52.889Z,70.5
2023-05-02T07:58:54.015Z,70.7
2023-05-02T07:59:55.185Z,70.9
2023-05-02T08:00:56.392Z,71
2023-05-02T08:01:57.529Z,71
2023-05-02T08:02:59.046Z,71
2023-05-02T08:04:01.098Z,71
2023-05-02T08:05:02.864Z,70.9
2023-05-02T08:06:04.114Z,70.7
2023-05-02T08:07:05.319Z,70.6
2023-05-02T08:08:09.608Z,70.5
2023-05-02T08:09:10.764Z,70.5
2023-05-02T08:10:11.959Z,70.6
2023-05-02T08:11:13.100Z,70.7
2023-05-02T08:12:14.324Z,70.7
2023-05-02T08:13:18.531Z,70.7
2023-05-02T08:14:19.676Z,70.8
2023-05-02T08:15:20.845Z,70.8
2023-05-02T08:16:22.144Z,70.7
2023-05-02T08:17:23.984Z,70.7
2023-05-02T08:18:25.136Z,70.6
2023-05-02T08:19:26.317Z,70.6
2023-05-02T08:20:27.484Z,70.5
2023-05-02T08:21:28.653Z,70.5
2023-05-02T08:22:29.815Z,70.4
2023-05-02T08:23:30.981Z,70.3
2023-05-02T08:24:32.165Z,70.2
2023-05-02T08:25:33.321Z,70.2
2023-05-02T08:26:34.486Z,70.2
2023-05-02T08:27:35.994Z,70.1
2023-05-02T08:28:37.123Z,70.1
2023-05-02T08:29:38.309Z,70
2023-05-02T08:30:39.515Z,69.9
2023-05-02T08:31:40.759Z,69.9
2023-05-02T08:32:42.310Z,69.9
2023-05-02T08:33:43.524Z,69.9
2023-05-02T08:34:44.758Z,69.9
2023-05-02T08:35:45.933Z,69.9
2023-05-02T08:36:47.103Z,69.9
2023-05-02T08:37:48.268Z,69.8
2023-05-02T08:38:49.521Z,69.8
2023-05-02T08:39:50.687Z,69.7
2023-05-02T08:40:51.853Z,69.7
2023-05-02T08:41:53.261Z,69.6
2023-05-02T08:42:54.506Z,69.7
2023-05-02T08:43:55.664Z,69.7
2023-05-02T08:44:56.864Z,69.7
2023-05-02T08:45:58.066Z,69.6
2023-05-02T08:46:59.326Z,69.5
2023-05-02T08:48:00.904Z,69.5
2023-05-02T08:49:02.057Z,69.4
2023-05-02T08:50:04.170Z,69.4
2023-05-02T08:51:05.338Z,69.4
2023-05-02T08:52:06.512Z,69.4
2023-05-02T08:53:07.696Z,69.4
2023-05-02T08:54:08.872Z,69.3
2023-05-02T08:55:10.054Z,69.3
2023-05-02T08:56:11.194Z,69.2
2023-05-02T08:57:12.362Z,69.2
2023-05-02T08:58:18.051Z,69.1
2023-05-02T08:59:19.223Z,69
2023-05-02T09:00:21.596Z,68.9
2023-05-02T09:01:23.277Z,68.9
2023-05-02T09:02:24.710Z,68.8
2023-05-02T09:03:25.848Z,68.7
2023-05-02T09:04:27.096Z,68.7
2023-05-02T09:05:28.253Z,68.6
2023-05-02T09:06:29.544Z,68.5
2023-05-02T09:07:30.881Z,68.5
2023-05-02T09:08:34.509Z,68.5
2023-05-02T09:09:35.956Z,68.5
2023-05-02T09:10:37.079Z,68.6
2023-05-02T09:16:50.062Z,68.6
2023-05-02T09:19:05.635Z,68.7
2023-05-02T09:20:33.651Z,68.7
2023-05-02T09:21:34.832Z,68.7
2023-05-02T09:22:41.775Z,68.6
2023-05-02T09:23:42.938Z,68.5
2023-05-02T09:24:44.112Z,68.5
2023-05-02T10:04:18.712Z,68.4
2023-05-02T10:05:19.997Z,66
2023-05-02T10:06:21.305Z,65.8
2023-05-02T10:07:22.442Z,65.6
2023-05-02T10:08:23.640Z,65.4
2023-05-02T10:09:24.783Z,65.3
2023-05-02T10:10:25.948Z,65.2
2023-05-02T10:11:27.116Z,65.1
2023-05-02T10:12:28.284Z,65
2023-05-02T10:13:29.547Z,65
2023-05-02T10:14:30.715Z,64.9
2023-05-02T10:15:31.993Z,64.8
2023-05-02T10:16:33.462Z,64.7
2023-05-02T10:17:34.869Z,64.6
2023-05-02T10:18:36.039Z,64.6
2023-05-02T10:19:37.238Z,64.5
2023-05-02T10:20:38.515Z,64.5
2023-05-02T10:21:39.703Z,64.5
2023-05-02T10:22:40.950Z,64.5
2023-05-02T10:23:42.116Z,64.4
2023-05-02T10:24:43.260Z,64.4
2023-05-02T10:25:44.430Z,64.3
2023-05-02T10:26:45.618Z,64.2
2023-05-02T10:27:46.766Z,64.2
2023-05-02T10:28:47.933Z,64.1
2023-05-02T10:29:49.104Z,64
2023-05-02T10:30:50.427Z,64
2023-05-02T10:31:55.534Z,64
2023-05-02T10:32:57.233Z,64
2023-05-02T10:34:08.576Z,64
2023-05-02T10:35:14.625Z,64.1
2023-05-02T10:36:15.793Z,64
2023-05-02T10:37:16.936Z,63.9
2023-05-02T10:38:18.104Z,63.8
2023-05-02T10:39:19.272Z,63.6
2023-05-02T10:40:20.449Z,63.5
2023-05-02T10:41:21.610Z,63.3
2023-05-02T10:42:22.768Z,63.2
2023-05-02T10:43:23.985Z,63.1
2023-05-02T10:44:28.305Z,63
2023-05-02T10:45:29.530Z,63
2023-05-02T10:46:30.839Z,62.8
2023-05-02T10:47:32.078Z,62.7
2023-05-02T10:48:33.258Z,62.6
2023-05-02T10:49:34.404Z,62.6
2023-05-02T10:50:35.600Z,62.6
2023-05-02T10:51:36.761Z,62.4
2023-05-02T10:53:40.718Z,62.7
2023-05-02T10:54:41.897Z,62.7
2023-05-02T10:55:48.586Z,62.7
2023-05-02T10:56:52.793Z,62.7
2023-05-02T10:57:56.844Z,62.7
2023-05-02T10:58:57.991Z,62.6
2023-05-02T10:59:59.161Z,62.5
2023-05-02T11:01:00.504Z,62.3
2023-05-02T11:02:02.129Z,62.1
2023-05-02T11:03:04.496Z,62
2023-05-02T11:04:08.739Z,61.9
2023-05-02T11:05:09.896Z,61.8
2023-05-02T11:06:11.266Z,61.8
2023-05-02T11:07:15.262Z,61.8
2023-05-02T11:08:20.388Z,61.7
2023-05-02T11:09:22.429Z,61.7
2023-05-02T11:10:27.790Z,61.5
2023-05-02T11:11:34.117Z,61.3
2023-05-02T11:12:37.992Z,61.2
2023-05-02T11:13:39.123Z,61.3
2023-05-02T11:14:43.222Z,61.2
2023-05-02T11:15:44.469Z,61.2
2023-05-02T11:16:45.736Z,61.2
2023-05-02T11:17:49.053Z,61.2
2023-05-02T11:18:50.319Z,61.2
2023-05-02T11:19:54.511Z,61.2
2023-05-02T11:20:55.782Z,61.3
2023-05-02T11:21:56.952Z,61.3
2023-05-02T11:23:03.052Z,61.2
2023-05-02T11:24:04.210Z,61.2
2023-05-02T11:25:05.456Z,61.2
2023-05-02T11:26:08.797Z,61.2
2023-05-02T11:27:09.947Z,61.2
2023-05-02T11:28:11.111Z,61.1
2023-05-02T11:29:15.352Z,61.1
2023-05-02T11:30:16.519Z,61
2023-05-02T11:31:17.715Z,60.9
2023-05-02T11:32:19.313Z,60.8
2023-05-02T11:33:20.997Z,60.7
2023-05-02T11:34:22.193Z,60.7
2023-05-02T11:35:23.367Z,60.2
2023-05-02T11:36:24.525Z,59.7
2023-05-02T11:37:32.060Z,59.6
2023-05-02T11:38:36.040Z,59.2
2023-05-02T11:39:40.482Z,59.1
2023-05-02T11:40:41.755Z,58.8
2023-05-02T11:41:43.009Z,59
2023-05-02T11:42:47.076Z,58.7
2023-05-02T11:43:48.296Z,57.8
2023-05-02T11:44:52.265Z,59
2023-05-02T11:45:53.469Z,58.2
2023-05-02T11:46:54.632Z,57.3
2023-05-02T11:47:55.882Z,57.7
2023-05-02T11:48:59.768Z,57.7
2023-05-02T11:50:06.418Z,56.6
2023-05-02T11:51:48.069Z,56.1
2023-05-02T11:52:49.292Z,55.7
2023-05-02T11:53:53.117Z,55.5
2023-05-02T11:54:54.281Z,55.3
2023-05-02T11:55:55.628Z,55
2023-05-02T11:56:56.907Z,54.7
2023-05-02T11:57:58.114Z,54.5
2023-05-02T11:58:59.483Z,54.2
2023-05-02T12:00:00.679Z,54
2023-05-02T12:01:06.725Z,53.8
2023-05-02T12:02:07.959Z,53.5
2023-05-02T12:03:09.555Z,53.4
2023-05-02T12:04:12.937Z,53.2
2023-05-02T12:05:14.479Z,53.1
2023-05-02T12:06:19.735Z,53
2023-05-02T12:07:21.184Z,53
2023-05-02T12:08:24.690Z,52.9
2023-05-02T12:09:25.896Z,52.8
2023-05-02T12:10:30.013Z,52.6
2023-05-02T12:12:21.790Z,52.6
2023-05-02T12:13:22.984Z,52.6
2023-05-02T12:14:24.228Z,52.6
2023-05-02T12:15:28.454Z,52.6
2023-05-02T12:16:34.859Z,52.7
2023-05-02T12:17:36.395Z,52.8
2023-05-02T12:18:37.528Z,52.8
2023-05-02T12:19:38.711Z,52.9
2023-05-02T12:20:39.947Z,53
2023-05-02T12:21:43.872Z,53.1
2023-05-02T12:22:45.154Z,53.1
2023-05-02T12:23:46.413Z,53.2
2023-05-02T12:24:47.640Z,53.2
2023-05-02T12:25:48.958Z,53.3
2023-05-02T12:26:53.324Z,53.3
2023-05-02T12:27:57.245Z,53.4
2023-05-02T12:28:58.472Z,53.4
2023-05-02T12:30:00.361Z,53.5
2023-05-02T12:31:01.745Z,53.6
2023-05-02T12:32:03.238Z,53.6
2023-05-02T12:33:04.924Z,53.6
2023-05-02T12:34:08.924Z,53.6
2023-05-02T12:35:10.092Z,53.6
2023-05-02T12:36:11.378Z,53.6
2023-05-02T12:37:12.608Z,53.6
2023-05-02T12:38:13.841Z,53.6
2023-05-02T12:39:15.101Z,53.6
2023-05-02T12:40:16.323Z,53.7
2023-05-02T12:41:17.522Z,53.7
2023-05-02T12:42:24.929Z,53.6
2023-05-02T12:43:28.880Z,53.6
2023-05-02T12:44:30.072Z,53.6
2023-05-02T12:45:34.056Z,53.6
2023-05-02T12:46:35.310Z,53.6
2023-05-02T12:47:36.480Z,53.6
2023-05-02T12:48:44.192Z,53.5
2023-05-02T12:49:48.184Z,53.4
2023-05-02T12:50:49.400Z,53.4
2023-05-02T12:51:50.546Z,53.3
2023-05-02T12:52:51.772Z,53.3
2023-05-02T12:53:52.943Z,53.4
2023-05-02T12:54:56.865Z,52.7
2023-05-02T12:55:58.010Z,53.1
2023-05-02T12:56:59.239Z,52.1
2023-05-02T12:58:00.391Z,51.9
2023-05-02T12:59:01.705Z,52
2023-05-02T13:00:04.260Z,52.1
2023-05-02T13:01:08.371Z,51.6
2023-05-02T13:02:09.533Z,51.3
2023-05-02T13:03:11.171Z,51
2023-05-02T13:04:12.486Z,50.8
2023-05-02T13:05:13.679Z,50.6
2023-05-02T13:06:14.906Z,50.4
2023-05-02T13:07:16.038Z,50.2
2023-05-02T13:08:17.206Z,50
2023-05-02T13:09:18.369Z,49.9
2023-05-02T13:10:19.582Z,49.8
2023-05-02T13:11:20.737Z,49.6
2023-05-02T13:12:24.399Z,49.6
2023-05-02T13:13:25.551Z,49.5
2023-05-02T13:14:26.712Z,49.4
2023-05-02T13:15:27.968Z,49.3
2023-05-02T13:16:29.273Z,49
2023-05-02T13:17:30.876Z,48.9
2023-05-02T13:18:34.387Z,48.8
2023-05-02T13:19:35.570Z,48.8
2023-05-02T13:20:36.738Z,48.8
2023-05-02T13:21:37.908Z,48.7
2023-05-02T13:22:39.066Z,48.7
2023-05-02T13:23:40.320Z,48.6
2023-05-02T13:24:41.484Z,48.6
2023-05-02T13:25:42.839Z,48.5
2023-05-02T13:26:43.970Z,48.3
2023-05-02T13:27:45.141Z,48.2
2023-05-02T13:28:46.308Z,48.2
2023-05-02T13:29:47.471Z,48.2
2023-05-02T13:30:48.714Z,48.3
2023-05-02T13:31:49.900Z,48.4
2023-05-02T13:32:51.074Z,48.5
2023-05-02T13:33:52.253Z,48.6
2023-05-02T13:34:53.419Z,48.6
2023-05-02T13:35:57.347Z,48.7
2023-05-02T13:36:58.549Z,48.7
2023-05-02T13:37:59.721Z,48.8
2023-05-02T13:39:01.062Z,48.8
2023-05-02T13:40:03.156Z,48.9
2023-05-02T13:41:04.604Z,49
2023-05-02T13:42:07.146Z,49.1
2023-05-02T13:43:11.276Z,49.2
2023-05-02T13:44:12.472Z,49.2
2023-05-02T13:45:13.636Z,49.3
2023-05-02T13:46:14.923Z,49.3
2023-05-02T13:47:16.062Z,49.3
2023-05-02T13:48:17.365Z,49.4
2023-05-02T13:49:18.563Z,49.5
2023-05-02T13:50:19.925Z,49.6
2023-05-02T13:51:21.092Z,49.6
2023-05-02T13:52:22.261Z,49.7
2023-05-02T13:53:23.424Z,49.8
2023-05-02T13:54:24.596Z,49.8
2023-05-02T13:55:25.792Z,49.9
2023-05-02T13:56:26.990Z,50
2023-05-02T13:57:28.128Z,50.1
2023-05-02T13:58:29.294Z,50.2
2023-05-02T13:59:30.455Z,50.3
2023-05-02T14:00:31.625Z,50.4
2023-05-02T14:01:32.854Z,50.4
2023-05-02T14:02:34.248Z,50.5
2023-05-02T14:03:36.000Z,50.6
2023-05-02T14:04:37.394Z,50.7
2023-05-02T14:05:38.596Z,50.8
2023-05-02T14:06:39.791Z,50.9
2023-05-02T14:07:40.955Z,51
2023-05-02T14:08:45.122Z,51
2023-05-02T14:09:46.256Z,51
2023-05-02T14:10:47.434Z,51.1
2023-05-02T14:11:48.629Z,51.2
2023-05-02T14:12:49.762Z,51.2
2023-05-02T14:13:50.937Z,51.3
2023-05-02T14:14:52.108Z,51.3
2023-05-02T14:15:53.381Z,51.4
2023-05-02T14:16:54.541Z,51.5
2023-05-02T14:17:55.774Z,51.5
2023-05-02T14:18:56.953Z,51.6
2023-05-02T14:19:58.110Z,51.7
2023-05-02T14:20:59.275Z,51.8
2023-05-02T14:22:00.445Z,51.9
2023-05-02T14:23:01.652Z,52
2023-05-02T14:24:02.892Z,52
2023-05-02T14:25:04.053Z,51.9
2023-05-02T14:26:08.180Z,52
2023-05-02T14:27:09.511Z,52.2
2023-05-02T14:28:15.936Z,52.4
2023-05-02T14:29:17.140Z,52.6
2023-05-02T14:30:18.277Z,52.7
2023-05-02T14:31:29.302Z,52.9
2023-05-02T14:32:30.581Z,53
2023-05-02T14:33:31.725Z,53
2023-05-02T14:34:32.935Z,53
2023-05-02T14:35:43.748Z,53
2023-05-02T14:36:56.107Z,53
2023-05-02T14:37:57.252Z,52.9
2023-05-02T14:38:58.524Z,52.8
2023-05-02T14:40:01.043Z,52.7
2023-05-02T14:41:02.500Z,52.7
2023-05-02T14:42:03.697Z,52.6
2023-05-02T14:43:06.495Z,52.7
2023-05-02T14:44:07.646Z,52.7
2023-05-02T14:45:08.849Z,52.7
2023-05-02T14:46:09.989Z,52.9
2023-05-02T14:47:11.287Z,52.8
2023-05-02T14:48:12.529Z,53
2023-05-02T14:49:13.728Z,53.1
2023-05-02T14:50:14.924Z,53.3
2023-05-02T14:51:16.098Z,53.4
2023-05-02T14:52:17.229Z,53.3
2023-05-02T14:53:18.405Z,53.2
2023-05-02T14:54:19.661Z,53.2
2023-05-02T14:55:23.848Z,53.3
2023-05-02T14:56:25.082Z,53.3
2023-05-02T14:57:26.355Z,53.4
2023-05-02T14:58:27.628Z,53.5
2023-05-02T14:59:28.847Z,53.5
2023-05-02T15:00:29.980Z,53.6
2023-05-02T15:01:31.464Z,53.7
2023-05-02T15:02:32.850Z,53.9
2023-05-02T15:04:08.799Z,54.1
2023-05-02T15:05:10.201Z,54.3
2023-05-02T15:06:11.691Z,54.2
2023-05-02T15:07:16.419Z,54.1
2023-05-02T15:08:20.925Z,54.1
2023-05-02T15:09:22.301Z,54.1